CheckWX is a tool to help pilots better visualize weather data.  It is not intended as a substitute for an official pre-flight weather briefing.

00:37:03 UTC

RJCK TAF
Kushiro Airport
Kushiro, Japan
TAF RJCK 262313Z 2700/2806 32016KT 9999 FEW020 BKN040 TEMPO 2700/2709 29020G30KT BECMG 2709/2711 24007KT TEMPO 2803/2806 3000 -SHSN

Mar-27@
00:00 UTC

Mar-27 @ 00:00 UTC

Mar-27@
09:00 UTC

Mar-27 @ 09:00 UTC

TAF RJCK 262313Z 2700/2806 32016KT 9999 FEW020 BKN040
Wind
  • 320° at 16 KTS
Cloud Levels
  • Few at 2,000' AGL
  • Broken at 4,000' AGL

Mar-27@
00:00 UTC

Mar-27 @ 00:00 UTC

Mar-27@
09:00 UTC

Mar-27 @ 09:00 UTC

TEMPO 2700/2709 29020G30KT

Temporary

Temporary Changes expected for less than half the time period

Wind
  • 290° at 20 KTS
  • {Gusting to 30 KTS

Mar-27@
09:00 UTC

Mar-27 @ 09:00 UTC

Mar-28@
06:00 UTC

Mar-28 @ 06:00 UTC

BECMG 2709/2711 24007KT

Becoming

Becoming Conditions expected by Wed, Mar 27, 2019 @ 11:00 UTC

Wind
  • 240° at 7 KTS
Cloud Levels
  • Few at 2,000' AGL
  • Broken at 4,000' AGL

Mar-28@
03:00 UTC

Mar-28 @ 03:00 UTC

Mar-28@
06:00 UTC

Mar-28 @ 06:00 UTC

TEMPO 2803/2806 3000 -SHSN

Temporary

Temporary Changes expected for less than half the time period

Conditions
Light Snow